»·PEaware :: N732SG KVNY-KSNA

N732SG :: KVNY-KSNA

FLIGHT INFORMATION

Flight Status: Arrived
Operator: Privately registered:
United States
More flights under this callsign
Pilot: Scott G. (88)
Aircraft: CESSNA 172 SKYHAWK
(C172)
More flights by this aircraft type
Origin: KVNY Van Nuys
United States
Destination: KSNA John Wayne-Orange Co
United States
More flights between these airports :: More routes between these airports
Route: Coastal Route
File this flight plan on PilotEdge
Remarks: CAT 10
Altitude:
(Current/Filed)
5,500ft
Speed:
(Current/Filed)
110kts
Departed: 08-Mar-17 12:50 PM
Arrived: 08-Mar-17 01:28 PM
Distance/Time
Traveled:
44nm/0:38
Distance/Time
To Go:
Arrived

Flight Plot

Page will automatically refresh every two minutes.


Map Options




Map Legend


Flown Route
Filed Route
Departure Airport
Arrival Airport
Navaid (VOR, NDB)
Fix

Horizontal Profiles

Position Reports

Time Latitude Longitude Heading Altitude Ground
Speed
08-Mar-17 12:43 34.196570 -118.489834 355 748ft 0kts
08-Mar-17 12:44 34.196570 -118.489834 355 748ft 0kts
08-Mar-17 12:45 34.196570 -118.489834 355 748ft 0kts
08-Mar-17 12:46 34.196570 -118.489834 355 748ft 0kts
08-Mar-17 12:47 34.196570 -118.489834 355 748ft 0kts
08-Mar-17 12:48 34.196570 -118.489834 356 748ft 0kts
08-Mar-17 12:49 34.196845 -118.489869 13 749ft 0kts
08-Mar-17 12:50 34.197171 -118.489186 14 749ft 3kts
08-Mar-17 12:51 34.204444 -118.490065 3 903ft 73kts
08-Mar-17 12:52 34.213553 -118.510057 251 1883ft 93kts
08-Mar-17 12:53 34.207377 -118.535523 261 2466ft 99kts
08-Mar-17 12:54 34.197917 -118.575849 262 2548ft 108kts
08-Mar-17 12:55 34.178453 -118.586871 150 2552ft 128kts
08-Mar-17 12:56 34.144440 -118.559975 151 2691ft 120kts
08-Mar-17 12:57 34.121205 -118.544237 160 3092ft 112kts
08-Mar-17 12:58 34.125478 -118.520349 350 3820ft 105kts
08-Mar-17 12:59 34.139961 -118.547551 325 4743ft 81kts
08-Mar-17 13:00 34.148653 -118.529678 143 5505ft 84kts
08-Mar-17 13:01 34.127239 -118.521012 169 5503ft 104kts
08-Mar-17 13:02 34.099895 -118.509997 162 5502ft 106kts
08-Mar-17 13:03 34.072148 -118.496231 161 5504ft 110kts
08-Mar-17 13:04 34.043827 -118.481898 162 5503ft 112kts
08-Mar-17 13:05 34.017551 -118.469026 162 5487ft 117kts
08-Mar-17 13:06 33.982135 -118.452011 163 5483ft 118kts
08-Mar-17 13:07 33.956672 -118.440226 165 5482ft 117kts
08-Mar-17 13:08 33.926384 -118.425470 139 5477ft 121kts
08-Mar-17 13:09 33.902596 -118.396741 139 5479ft 122kts
08-Mar-17 13:10 33.881811 -118.372924 143 5478ft 122kts
08-Mar-17 13:11 33.854809 -118.348627 137 5477ft 122kts
08-Mar-17 13:12 33.833693 -118.324997 138 5477ft 122kts
08-Mar-17 13:13 33.808848 -118.297587 137 5476ft 122kts
08-Mar-17 13:14 33.783759 -118.270576 136 5475ft 121kts
08-Mar-17 13:15 33.759253 -118.243474 117 5474ft 117kts
08-Mar-17 13:16 33.741146 -118.211209 103 5469ft 113kts
08-Mar-17 13:17 33.739630 -118.173491 99 4913ft 108kts
08-Mar-17 13:18 33.737162 -118.137397 99 4060ft 113kts
08-Mar-17 13:19 33.734559 -118.099096 99 3066ft 116kts
08-Mar-17 13:20 33.732043 -118.061725 99 2495ft 103kts
08-Mar-17 13:21 33.729630 -118.026651 99 2502ft 107kts
08-Mar-17 13:22 33.727147 -117.990395 99 2218ft 111kts
08-Mar-17 13:23 33.724584 -117.954071 99 1441ft 106kts
08-Mar-17 13:24 33.721978 -117.918245 99 945ft 108kts
08-Mar-17 13:25 33.719007 -117.884620 101 938ft 96kts
08-Mar-17 13:26 33.712166 -117.858679 138 766ft 72kts
08-Mar-17 13:27 33.697633 -117.854839 207 356ft 58kts
08-Mar-17 13:28 33.683527 -117.863843 209 132ft 55kts
08-Mar-17 13:29 33.678130 -117.868413 291 60ft 0kts
08-Mar-17 13:30 33.677944 -117.868900 218 60ft 14kts
08-Mar-17 13:31 33.675314 -117.871664 221 60ft 5kts
08-Mar-17 13:32 33.675262 -117.871710 210 60ft 0kts

Navigation Log

Ident Type
Flight plan parsing failed, navigation log unavailable